Terminal Aerodrome Forecast
Issued by NWS

Home | Current Version | Previous Version | Text Only | Print | Product List | Glossary On
Versions: 1 2 3 4 5 6 7 8 9 10 11 12 13 14 15 16 17 18 19 20
000
FTUS41 KBOX 071720
TAFBED
TAF
KBED 071720Z 0718/0818 VRB03KT 6SM BR OVC004
     FM072200 VRB03KT P6SM SCT080
     FM080300 VRB03KT P6SM BKN110
     FM081600 26007KT P6SM OVC070=

USA.gov is the U.S. government's official web portal to all federal, state and local government web resources and services.